createdAt,value
2018-02-14T00:00:17.442Z,9.10
2018-02-14T00:02:45.008Z,8.45
2018-02-14T00:05:12.533Z,9.15
2018-02-14T00:07:40.857Z,10.43
2018-02-14T00:10:08.390Z,12.00
2018-02-14T00:12:35.959Z,8.50
2018-02-14T00:15:03.502Z,15.25
2018-02-14T00:17:31.051Z,13.20
2018-02-14T00:19:59.372Z,8.30
2018-02-14T00:22:26.909Z,8.25
2018-02-14T00:24:54.466Z,8.60
2018-02-14T00:27:21.998Z,9.98
2018-02-14T00:29:50.323Z,10.32
2018-02-14T00:32:17.857Z,8.10
2018-02-14T00:34:45.426Z,9.55
2018-02-14T00:37:12.969Z,16.83
2018-02-14T00:39:41.298Z,12.25
2018-02-14T00:42:08.829Z,9.55
2018-02-14T00:44:36.399Z,10.90
2018-02-14T00:47:03.942Z,12.55
2018-02-14T00:49:31.501Z,9.15
2018-02-14T00:51:59.034Z,12.40
2018-02-14T00:54:27.360Z,11.15
2018-02-14T00:56:54.893Z,8.93
2018-02-14T00:59:22.458Z,14.35
2018-02-14T01:01:49.992Z,10.32
2018-02-14T01:04:18.313Z,8.90
2018-02-14T01:06:45.837Z,8.40
2018-02-14T01:09:14.157Z,9.77
2018-02-14T01:11:41.689Z,12.15
2018-02-14T01:14:09.246Z,10.07
2018-02-14T01:16:36.792Z,9.20
2018-02-14T01:19:10.719Z,13.50
2018-02-14T01:21:38.397Z,12.10
2018-02-14T01:24:05.963Z,9.15
2018-02-14T01:26:33.497Z,9.57
2018-02-14T01:29:01.056Z,10.00
2018-02-14T01:31:28.594Z,10.45
2018-02-14T01:33:56.922Z,9.18
2018-02-14T01:36:24.454Z,7.47
2018-02-14T01:38:52.018Z,9.27
2018-02-14T01:41:19.557Z,10.73
2018-02-14T01:43:47.886Z,12.30
2018-02-14T01:46:15.422Z,12.75
2018-02-14T01:48:42.977Z,8.63
2018-02-14T01:51:10.518Z,16.48
2018-02-14T01:53:38.841Z,8.70
2018-02-14T01:56:06.374Z,9.85
2018-02-14T01:58:33.934Z,10.30
2018-02-14T02:01:01.468Z,10.30
2018-02-14T02:03:29.798Z,10.80
2018-02-14T02:05:57.330Z,8.88
2018-02-14T02:08:24.893Z,11.93
2018-02-14T02:10:52.426Z,8.95
2018-02-14T02:13:20.754Z,12.85
2018-02-14T02:15:48.285Z,9.63
2018-02-14T02:18:15.905Z,11.80
2018-02-14T02:20:43.407Z,14.68
2018-02-14T02:23:10.973Z,18.62
2018-02-14T02:25:38.509Z,12.32
2018-02-14T02:28:06.825Z,10.90
2018-02-14T02:30:34.403Z,17.10
2018-02-14T02:33:02.710Z,12.98
2018-02-14T02:35:31.044Z,12.30
2018-02-14T02:37:58.578Z,10.80
2018-02-14T02:40:32.201Z,8.38
2018-02-14T02:42:59.736Z,10.40
2018-02-14T02:45:27.296Z,10.77
2018-02-14T02:47:54.843Z,9.38
2018-02-14T02:50:23.170Z,13.13
2018-02-14T02:52:50.711Z,8.85
2018-02-14T02:55:18.278Z,13.80
2018-02-14T02:57:45.825Z,13.02
2018-02-14T03:00:13.400Z,11.88
2018-02-14T03:02:40.945Z,10.45
2018-02-14T03:05:08.514Z,12.40
2018-02-14T03:07:36.057Z,13.95
2018-02-14T03:10:03.618Z,13.00
2018-02-14T03:12:31.157Z,10.25
2018-02-14T03:14:59.481Z,16.62
2018-02-14T03:17:27.017Z,15.77
2018-02-14T03:19:54.578Z,11.88
2018-02-14T03:22:22.111Z,9.15
2018-02-14T03:24:50.433Z,8.80
2018-02-14T03:27:17.968Z,12.07
2018-02-14T03:29:45.533Z,11.70
2018-02-14T03:32:13.071Z,9.93
2018-02-14T03:34:41.402Z,10.85
2018-02-14T03:37:08.943Z,14.13
2018-02-14T03:39:36.503Z,10.65
2018-02-14T03:42:04.038Z,11.63
2018-02-14T03:44:31.599Z,10.30
2018-02-14T03:46:59.143Z,10.60
2018-02-14T03:49:27.466Z,12.32
2018-02-14T03:51:55.007Z,10.57
2018-02-14T03:54:22.567Z,13.48
2018-02-14T03:56:50.098Z,9.27
2018-02-14T03:59:18.435Z,10.55
2018-02-14T04:01:45.981Z,11.70
2018-02-14T04:04:13.540Z,12.07
2018-02-14T04:06:41.082Z,10.27
2018-02-14T04:09:08.644Z,13.10
2018-02-14T04:11:36.185Z,12.35
2018-02-14T04:14:04.526Z,12.48
2018-02-14T04:16:32.058Z,10.25
2018-02-14T04:18:59.613Z,17.35
2018-02-14T04:21:27.158Z,13.38
2018-02-14T04:23:54.714Z,12.60
2018-02-14T04:26:22.253Z,13.18
2018-02-14T04:28:50.582Z,13.55
2018-02-14T04:31:18.894Z,11.00
2018-02-14T04:33:46.434Z,10.30
2018-02-14T04:36:13.991Z,13.65
2018-02-14T04:38:41.532Z,11.05
2018-02-14T04:41:09.098Z,12.23
2018-02-14T04:43:36.630Z,12.85
2018-02-14T04:46:04.189Z,14.63
2018-02-14T04:48:31.730Z,13.00
2018-02-14T04:51:00.065Z,10.93
2018-02-14T04:53:27.598Z,12.43
2018-02-14T04:55:55.155Z,13.45
2018-02-14T04:58:22.685Z,12.02
2018-02-14T05:00:51.022Z,12.43
2018-02-14T05:03:18.553Z,14.50
2018-02-14T05:05:46.119Z,14.10
2018-02-14T05:08:13.661Z,14.13
2018-02-14T05:10:41.226Z,10.85
2018-02-14T05:13:08.780Z,13.20
2018-02-14T05:15:36.341Z,13.43
2018-02-14T05:18:03.878Z,17.05
2018-02-14T05:20:32.210Z,12.68
2018-02-14T05:22:59.750Z,14.30
2018-02-14T05:25:27.310Z,18.12
2018-02-14T05:27:54.841Z,13.57
2018-02-14T05:30:23.170Z,14.95
2018-02-14T05:32:50.707Z,16.45
2018-02-14T05:35:18.272Z,14.05
2018-02-14T05:37:45.810Z,13.00
2018-02-14T05:40:13.375Z,17.05
2018-02-14T05:42:40.917Z,13.23
2018-02-14T05:45:09.250Z,13.13
2018-02-14T05:47:36.785Z,13.95
2018-02-14T05:50:04.354Z,15.55
2018-02-14T05:52:31.897Z,19.35
2018-02-14T05:54:59.455Z,14.63
2018-02-14T05:57:26.994Z,15.75
2018-02-14T05:59:55.330Z,17.85
2018-02-14T06:02:22.877Z,15.27
2018-02-14T06:04:50.435Z,15.48
2018-02-14T06:07:17.975Z,13.18
2018-02-14T06:09:45.538Z,14.68
2018-02-14T06:12:13.078Z,14.68
2018-02-14T06:14:41.410Z,13.45
2018-02-14T06:17:08.955Z,14.10
2018-02-14T06:19:36.513Z,12.75
2018-02-14T06:22:04.051Z,14.70
2018-02-14T06:24:31.585Z,13.80
2018-02-14T06:26:59.926Z,14.27
2018-02-14T06:29:27.462Z,16.10
2018-02-14T06:53:31.931Z,20.25
2018-02-14T06:55:59.495Z,19.27
2018-02-14T06:58:27.039Z,21.80
2018-02-14T07:00:54.609Z,21.48
2018-02-14T07:03:22.155Z,23.10
2018-02-14T07:05:49.713Z,20.88
2018-02-14T07:08:17.243Z,16.80
2018-02-14T07:10:45.568Z,17.95
2018-02-14T07:13:13.101Z,17.70
2018-02-14T07:15:40.679Z,17.12
2018-02-14T07:18:08.227Z,20.35
2018-02-14T07:20:35.790Z,20.10
2018-02-14T07:23:03.338Z,18.83
2018-02-14T07:25:30.895Z,17.85
2018-02-14T07:27:59.206Z,22.62
2018-02-14T07:30:26.764Z,17.40
2018-02-14T07:32:54.315Z,19.87
2018-02-14T07:35:21.901Z,22.02
2018-02-14T07:37:49.420Z,19.92
2018-02-14T07:40:16.981Z,19.58
2018-02-14T07:42:44.522Z,21.08
2018-02-14T07:45:12.906Z,20.60
2018-02-14T07:47:41.257Z,25.50
2018-02-14T07:50:08.822Z,26.92
2018-02-14T07:52:36.371Z,20.00
2018-02-14T07:55:03.963Z,18.67
2018-02-14T07:57:32.266Z,21.83
2018-02-14T07:59:59.803Z,17.45
2018-02-14T08:02:28.138Z,21.00
2018-02-14T08:04:55.686Z,17.37
2018-02-14T08:07:23.246Z,19.17
2018-02-14T08:09:51.563Z,20.33
2018-02-14T08:12:19.893Z,21.80
2018-02-14T08:14:47.430Z,17.73
2018-02-14T08:17:14.989Z,27.17
2018-02-14T08:19:42.527Z,18.12
2018-02-14T08:22:10.861Z,16.10
2018-02-14T08:24:38.409Z,21.40
2018-02-14T08:27:05.974Z,18.08
2018-02-14T08:29:33.515Z,19.10
2018-02-14T08:32:01.078Z,18.33
2018-02-14T08:34:28.618Z,20.62
2018-02-14T08:36:56.186Z,20.60
2018-02-14T08:39:23.727Z,22.13
2018-02-14T08:41:52.066Z,17.55
2018-02-14T08:44:19.600Z,17.65
2018-02-14T08:46:47.168Z,18.48
2018-02-14T08:49:14.705Z,18.83
2018-02-14T08:51:42.282Z,24.73
2018-02-14T08:54:09.822Z,17.90
2018-02-14T08:56:37.389Z,22.27
2018-02-14T08:59:04.938Z,17.27
2018-02-14T09:01:32.503Z,20.92
2018-02-14T09:04:00.052Z,17.03
2018-02-14T09:06:27.645Z,15.10
2018-02-14T09:08:55.182Z,16.57
2018-02-14T09:11:22.744Z,18.23
2018-02-14T09:13:50.291Z,19.85
2018-02-14T09:16:18.616Z,18.30
2018-02-14T09:18:46.145Z,19.40
2018-02-14T09:21:13.710Z,14.63
2018-02-14T09:23:41.259Z,23.67
2018-02-14T09:26:08.817Z,16.42
2018-02-14T09:28:36.349Z,19.20
2018-02-14T09:31:03.914Z,24.03
2018-02-14T09:33:32.218Z,17.43
2018-02-14T09:35:59.786Z,18.50
2018-02-14T09:38:27.321Z,19.17
2018-02-14T09:40:54.894Z,19.58
2018-02-14T09:43:22.428Z,18.13
2018-02-14T09:45:50.766Z,23.58
2018-02-14T09:48:19.072Z,19.45
2018-02-14T09:50:46.647Z,20.05
2018-02-14T09:53:14.953Z,23.92
2018-02-14T09:55:42.506Z,16.57
2018-02-14T09:58:10.051Z,22.83
2018-02-14T10:00:38.422Z,17.35
2018-02-14T10:03:06.727Z,18.20
2018-02-14T10:05:34.271Z,16.10
2018-02-14T10:08:01.842Z,18.12
2018-02-14T10:10:29.383Z,19.85
2018-02-14T10:12:57.710Z,19.50
2018-02-14T10:15:25.246Z,18.50
2018-02-14T10:17:52.802Z,17.97
2018-02-14T10:20:20.333Z,23.67
2018-02-14T10:22:48.674Z,17.73
2018-02-14T10:25:16.206Z,17.27
2018-02-14T10:27:43.760Z,16.70
2018-02-14T10:30:11.295Z,19.40
2018-02-14T10:32:39.622Z,23.30
2018-02-14T10:35:07.154Z,18.83
2018-02-14T10:37:34.717Z,18.43
2018-02-14T10:40:02.246Z,16.27
2018-02-14T10:42:29.807Z,17.40
2018-02-14T10:44:58.113Z,16.43
2018-02-14T10:47:25.676Z,15.57
2018-02-14T10:49:53.206Z,17.57
2018-02-14T10:52:21.537Z,19.70
2018-02-14T10:54:49.066Z,18.37
2018-02-14T10:57:16.621Z,19.00
2018-02-14T10:59:44.910Z,15.47
2018-02-14T11:02:12.458Z,18.23
2018-02-14T11:04:45.646Z,18.03
2018-02-14T11:07:18.877Z,17.27
2018-02-14T11:09:46.419Z,18.80
2018-02-14T11:12:13.985Z,15.53
2018-02-14T11:14:41.525Z,21.33
2018-02-14T11:17:09.083Z,13.63
2018-02-14T11:19:36.626Z,15.17
2018-02-14T11:22:04.945Z,13.37
2018-02-14T11:24:32.477Z,13.17
2018-02-14T11:27:00.035Z,16.90
2018-02-14T11:29:28.322Z,15.90
2018-02-14T11:31:55.878Z,14.17
2018-02-14T11:34:23.409Z,14.53
2018-02-14T11:36:51.736Z,10.03
2018-02-14T11:39:19.271Z,11.70
2018-02-14T11:41:46.826Z,11.63
2018-02-14T11:44:14.362Z,14.93
2018-02-14T11:46:41.913Z,12.80
2018-02-14T11:49:09.438Z,12.47
2018-02-14T11:51:36.994Z,16.97
2018-02-14T11:54:04.518Z,9.80
2018-02-14T11:56:32.839Z,11.27
2018-02-14T11:59:00.370Z,13.63
2018-02-14T12:01:27.921Z,16.47
2018-02-14T12:03:56.209Z,13.20
2018-02-14T12:06:23.755Z,9.57
2018-02-14T12:08:52.046Z,12.03
2018-02-14T12:11:19.577Z,12.27
2018-02-14T12:13:47.890Z,10.50
2018-02-14T12:16:15.423Z,12.63
2018-02-14T12:18:43.750Z,10.07
2018-02-14T12:21:11.278Z,9.90
2018-02-14T12:23:38.829Z,11.57
2018-02-14T12:26:06.358Z,9.60
2018-02-14T12:28:33.913Z,13.50
2018-02-14T12:31:01.450Z,13.53
2018-02-14T12:33:29.002Z,10.17
2018-02-14T12:35:56.530Z,11.70
2018-02-14T12:38:24.084Z,11.67
2018-02-14T12:40:52.372Z,11.20
2018-02-14T12:43:19.930Z,11.63
2018-02-14T12:45:47.465Z,10.67
2018-02-14T12:48:15.787Z,11.20
2018-02-14T12:50:43.310Z,10.50
2018-02-14T12:53:11.626Z,16.50
2018-02-14T12:55:39.159Z,11.37
2018-02-14T12:58:06.707Z,11.57
2018-02-14T13:00:35.007Z,12.03
2018-02-14T13:03:02.555Z,11.40
2018-02-14T13:05:30.846Z,11.70
2018-02-14T13:07:58.402Z,13.30
2018-02-14T13:10:25.926Z,11.77
2018-02-14T13:12:54.261Z,12.23
2018-02-14T13:15:21.791Z,9.97
2018-02-14T13:17:49.355Z,12.37
2018-02-14T13:20:16.882Z,12.20
2018-02-14T13:22:44.430Z,12.43
2018-02-14T13:25:11.970Z,8.33
2018-02-14T13:27:39.530Z,9.10
2018-02-14T13:30:07.830Z,9.03
2018-02-14T13:32:35.383Z,9.90
2018-02-14T13:35:02.915Z,8.80
2018-02-14T13:37:30.474Z,11.37
2018-02-14T13:39:57.989Z,7.90
2018-02-14T13:42:26.307Z,8.97
2018-02-14T13:44:53.871Z,7.87
2018-02-14T13:47:21.407Z,8.50
2018-02-14T13:49:48.942Z,10.80
2018-02-14T13:52:17.261Z,10.67
2018-02-14T13:54:44.786Z,8.60
2018-02-14T13:57:13.098Z,7.70
2018-02-14T13:59:40.627Z,15.97
2018-02-14T14:02:08.184Z,11.83
2018-02-14T14:04:36.470Z,7.20
2018-02-14T14:07:04.018Z,9.10
2018-02-14T14:09:32.308Z,9.43
2018-02-14T14:11:59.862Z,7.90
2018-02-14T14:14:28.150Z,6.57
2018-02-14T14:16:55.677Z,7.97
2018-02-14T14:19:23.234Z,7.33
2018-02-14T14:21:50.759Z,7.30
2018-02-14T14:24:18.307Z,8.80
2018-02-14T14:26:45.838Z,8.57
2018-02-14T14:29:13.391Z,9.23
2018-02-14T14:31:41.677Z,9.37
2018-02-14T14:34:09.987Z,8.43
2018-02-14T14:36:37.522Z,9.03
2018-02-14T14:39:05.082Z,8.97
2018-02-14T14:41:32.610Z,9.10
2018-02-14T14:44:00.166Z,7.07
2018-02-14T14:46:27.691Z,9.63
2018-02-14T14:48:55.271Z,9.37
2018-02-14T14:51:22.807Z,7.50
2018-02-14T14:53:50.371Z,10.90
2018-02-14T14:56:17.888Z,8.20
2018-02-14T14:58:46.222Z,10.30
2018-02-14T15:01:13.790Z,11.40
2018-02-14T15:03:41.349Z,10.50
2018-02-14T15:06:08.897Z,14.03
2018-02-14T15:08:36.446Z,15.43
2018-02-14T15:11:03.977Z,10.83
2018-02-14T15:13:32.301Z,13.00
2018-02-14T15:15:59.836Z,8.97
2018-02-14T15:18:27.388Z,9.60
2018-02-14T15:20:54.911Z,8.10
2018-02-14T15:23:22.490Z,11.90
2018-02-14T15:25:50.019Z,9.33
2018-02-14T15:28:18.338Z,8.67
2018-02-14T15:30:45.863Z,12.73
2018-02-14T15:33:14.190Z,9.53
2018-02-14T15:35:41.717Z,12.83
2018-02-14T15:38:09.274Z,14.13
2018-02-14T15:40:37.562Z,9.00
2018-02-14T15:43:05.106Z,9.57
2018-02-14T15:45:33.391Z,10.60
2018-02-14T15:48:01.707Z,11.73
2018-02-14T15:50:29.230Z,9.70
2018-02-14T15:52:56.788Z,9.70
2018-02-14T15:55:24.329Z,11.43
2018-02-14T15:57:52.657Z,9.43
2018-02-14T16:00:20.190Z,8.97
2018-02-14T16:02:47.733Z,9.20
2018-02-14T16:05:16.022Z,9.80
2018-02-14T16:07:43.585Z,9.73
2018-02-14T16:10:11.114Z,12.80
2018-02-14T16:12:38.703Z,10.20
2018-02-14T16:15:06.983Z,7.30
2018-02-14T16:17:34.538Z,7.10
2018-02-14T16:20:02.066Z,8.83
2018-02-14T16:22:29.624Z,10.23
2018-02-14T16:24:57.195Z,10.60
2018-02-14T16:27:24.725Z,13.23
2018-02-14T16:29:52.275Z,11.07
2018-02-14T16:32:20.566Z,12.40
2018-02-14T16:34:48.118Z,9.13
2018-02-14T16:37:15.637Z,9.40
2018-02-14T16:39:43.189Z,10.40
2018-02-14T16:42:11.470Z,9.37
2018-02-14T16:44:39.027Z,12.47
2018-02-14T16:47:06.562Z,8.73
2018-02-14T16:49:34.116Z,11.97
2018-02-14T16:52:01.651Z,11.27
2018-02-14T16:54:29.202Z,13.07
2018-02-14T16:56:57.498Z,11.90
2018-02-14T16:59:25.053Z,9.10
2018-02-14T17:01:52.586Z,10.00
2018-02-14T17:04:20.130Z,12.97
2018-02-14T17:06:47.659Z,12.93
2018-02-14T17:09:15.985Z,11.43
2018-02-14T17:11:43.520Z,11.43
2018-02-14T17:14:11.078Z,14.80
2018-02-14T17:16:38.616Z,17.07
2018-02-14T17:19:06.940Z,11.83
2018-02-14T17:21:34.469Z,15.43
2018-02-14T17:24:02.796Z,15.63
2018-02-14T17:26:30.318Z,15.40
2018-02-14T17:28:57.878Z,18.80
2018-02-14T17:31:25.415Z,18.53
2018-02-14T17:33:53.738Z,29.40
2018-02-14T17:36:21.269Z,26.60
2018-02-14T17:38:48.852Z,22.10
2018-02-14T17:41:16.385Z,24.77
2018-02-14T17:43:44.740Z,22.13
2018-02-14T17:46:12.279Z,20.40
2018-02-14T17:48:39.841Z,17.90
2018-02-14T17:51:07.414Z,22.17
2018-02-14T17:53:34.974Z,20.80
2018-02-14T17:56:02.520Z,24.53
2018-02-14T17:58:30.103Z,34.47
2018-02-14T18:00:58.416Z,27.87
2018-02-14T18:03:26.035Z,25.60
2018-02-14T18:05:53.600Z,23.80
2018-02-14T18:08:21.154Z,24.47
2018-02-14T18:10:48.715Z,20.97
2018-02-14T18:13:16.242Z,20.47
2018-02-14T18:15:43.813Z,19.97
2018-02-14T18:18:11.355Z,25.07
2018-02-14T18:20:38.919Z,18.70
2018-02-14T18:23:06.467Z,19.73
2018-02-14T18:25:34.027Z,21.00
2018-02-14T18:28:01.572Z,21.03
2018-02-14T18:30:29.148Z,25.73
2018-02-14T18:32:56.694Z,17.70
2018-02-14T18:35:24.252Z,18.60
2018-02-14T18:37:51.802Z,22.43
2018-02-14T18:40:19.361Z,17.87
2018-02-14T18:42:47.675Z,23.00
2018-02-14T18:45:15.244Z,20.17
2018-02-14T18:47:42.813Z,17.80
2018-02-14T18:50:10.382Z,20.30
2018-02-14T18:52:37.919Z,24.83
2018-02-14T18:55:05.446Z,21.40
2018-02-14T18:57:33.002Z,21.20
2018-02-14T19:00:00.539Z,23.97
2018-02-14T19:02:28.867Z,27.60
2018-02-14T19:04:56.406Z,22.50
2018-02-14T19:07:23.963Z,25.67
2018-02-14T19:09:51.501Z,23.83
2018-02-14T19:12:19.834Z,21.27
2018-02-14T19:14:48.142Z,21.43
2018-02-14T19:17:15.698Z,15.70
2018-02-14T19:19:43.230Z,18.00
2018-02-14T19:22:10.789Z,21.20
2018-02-14T19:24:38.333Z,16.80
2018-02-14T19:27:05.893Z,18.03
2018-02-14T19:29:33.422Z,20.10
2018-02-14T19:32:01.750Z,19.13
2018-02-14T19:34:29.445Z,21.77
2018-02-14T19:36:57.081Z,17.87
2018-02-14T19:39:24.621Z,15.43
2018-02-14T19:41:52.165Z,16.80
2018-02-14T19:44:19.722Z,17.03
2018-02-14T19:46:47.254Z,16.80
2018-02-14T19:49:15.573Z,14.00
2018-02-14T19:51:43.113Z,15.97
2018-02-14T19:54:10.671Z,13.30
2018-02-14T19:56:38.207Z,20.13
2018-02-14T19:59:06.533Z,17.10
2018-02-14T20:01:34.074Z,16.57
2018-02-14T20:04:01.632Z,18.70
2018-02-14T20:06:29.166Z,17.57
2018-02-14T20:08:57.497Z,16.53
2018-02-14T20:11:25.054Z,18.33
2018-02-14T20:13:52.614Z,22.20
2018-02-14T20:16:20.150Z,18.97
2018-02-14T20:18:47.706Z,19.43
2018-02-14T20:21:15.242Z,18.80
2018-02-14T20:23:43.580Z,18.53
2018-02-14T20:26:11.890Z,16.47
2018-02-14T20:28:40.217Z,20.20
2018-02-14T20:31:07.754Z,18.30
2018-02-14T20:33:35.318Z,16.90
2018-02-14T20:36:02.858Z,16.85
2018-02-14T20:38:30.426Z,17.27
2018-02-14T20:40:57.971Z,18.55
2018-02-14T20:43:26.302Z,17.67
2018-02-14T20:45:53.847Z,19.20
2018-02-14T20:48:21.406Z,21.63
2018-02-14T20:50:48.937Z,22.67
2018-02-14T20:53:16.509Z,25.40
2018-02-14T20:55:44.046Z,28.23
2018-02-14T20:58:12.403Z,23.70
2018-02-14T21:00:40.697Z,25.30
2018-02-14T21:03:09.027Z,22.60
2018-02-14T21:05:36.566Z,21.67
2018-02-14T21:08:04.900Z,22.30
2018-02-14T21:10:32.433Z,23.57
2018-02-14T21:13:00.010Z,22.03
2018-02-14T21:15:27.546Z,23.33
2018-02-14T21:17:55.083Z,20.07
2018-02-14T21:20:22.637Z,16.27
2018-02-14T21:22:50.171Z,20.80
2018-02-14T21:25:17.734Z,18.97
2018-02-14T21:27:46.041Z,20.67
2018-02-14T21:30:13.612Z,17.10
2018-02-14T21:32:41.150Z,17.50
2018-02-14T21:35:08.797Z,17.60
2018-02-14T21:37:37.089Z,21.63
2018-02-14T21:40:04.656Z,20.83
2018-02-14T21:42:32.198Z,23.17
2018-02-14T21:45:00.522Z,18.10
2018-02-14T21:47:28.049Z,17.53
2018-02-14T21:49:55.611Z,18.27
2018-02-14T21:52:23.141Z,18.53
2018-02-14T21:54:51.462Z,17.83
2018-02-14T21:57:19.001Z,21.67
2018-02-14T21:59:47.321Z,24.37
2018-02-14T22:02:14.866Z,22.33
2018-02-14T22:04:42.424Z,17.07
2018-02-14T22:07:09.978Z,17.13
2018-02-14T22:09:37.545Z,19.67
2018-02-14T22:12:05.081Z,17.87
2018-02-14T22:14:32.643Z,21.77
2018-02-14T22:17:00.196Z,23.90
2018-02-14T22:19:28.518Z,15.27
2018-02-14T22:21:56.058Z,22.30
2018-02-14T22:24:24.554Z,20.80
2018-02-14T22:26:52.091Z,16.53
2018-02-14T22:29:19.663Z,22.73
2018-02-14T22:31:47.198Z,17.03
2018-02-14T22:34:14.950Z,18.47
2018-02-14T22:36:43.250Z,22.23
2018-02-14T22:39:10.809Z,24.10
2018-02-14T22:41:38.346Z,22.77
2018-02-14T22:44:06.674Z,20.47
2018-02-14T22:46:34.228Z,20.23
2018-02-14T22:49:01.784Z,16.60
2018-02-14T22:51:29.310Z,17.87
2018-02-14T22:53:57.625Z,17.73
2018-02-14T22:56:25.154Z,17.00
2018-02-14T22:58:52.718Z,20.13
2018-02-14T23:01:20.258Z,16.27
2018-02-14T23:03:48.586Z,21.40
2018-02-14T23:06:16.899Z,22.33
2018-02-14T23:08:44.467Z,19.20
2018-02-14T23:11:12.871Z,22.90
2018-02-14T23:13:40.434Z,15.60
2018-02-14T23:16:07.961Z,18.83
2018-02-14T23:18:35.522Z,16.70
2018-02-14T23:21:03.047Z,16.07
2018-02-14T23:23:30.611Z,16.43
2018-02-14T23:25:58.919Z,17.57
2018-02-14T23:28:26.447Z,16.53
2018-02-14T23:30:54.031Z,20.60
2018-02-14T23:33:21.604Z,19.23
2018-02-14T23:35:49.147Z,16.70
2018-02-14T23:38:16.682Z,20.90
2018-02-14T23:40:44.239Z,16.47
2018-02-14T23:43:11.783Z,17.87
2018-02-14T23:45:39.330Z,20.70
2018-02-14T23:48:06.863Z,18.17
2018-02-14T23:50:35.186Z,22.17
2018-02-14T23:53:02.714Z,21.23
2018-02-14T23:55:31.034Z,16.23
2018-02-14T23:57:58.565Z,20.10
